Grand Rapids, MI (49544)

12:43 PM EST on November 24, 2014 (GMT -0500)
Near Lake Michigan Dr and Collindale | Change Station
CLOSE
Current Station
Personal Weather Station
Location: Grand Rapids, MI
Elevation: 748 ft
Nearby Weather Stations

Elev 748 ft 42.98 °N, 85.74 °W | Updated 6 seconds ago

Rain
Rain
47.5 °F
Feels Like 45 °F
N
5.0
Wind Variable Wind from SW
Gusts 13.0 mph

Today
High -- | Low -- °F
--% Chance of Precip.
Yesterday
High -- | Low -- °F
Precip. -- in
7:46 AM 5:12 PM
Waxing Crescent, 6% visible
Pressure 29.06 in
Visibility 1.5 miles
Clouds Mostly Cloudy 400 ft
Overcast 1000 ft
Windchill 45 °F
Dew Point 46 °F
Humidity 95%
Rainfall 0.51 in
Snow Depth Not available.
UV 1 out of 12
Pollen .10 out of 12
Air Quality Not available.
Flu Activity Not available.
METAR KGRR 241653Z 24010KT 1 1/2SM RA BR BKN004 OVC010 10/09 A2906 RMK AO2 RAB1557 SLP841 P0008 T01000094

More Conditions Fewer Conditions

Pressure 29.06 in
Visibility 1.5 miles
Clouds Mostly Cloudy 400 ft
Overcast 1000 ft
Windchill 45 °F
Dew Point 46 °F
Humidity 95%
Rainfall 0.51 in
Snow Depth Not available.
UV 1 out of 12
Pollen .10 out of 12
Air Quality Not available.
Flu Activity Not available.
METAR KGRR 241653Z 24010KT 1 1/2SM RA BR BKN004 OVC010 10/09 A2906 RMK AO2 RAB1557 SLP841 P0008 T01000094

More Conditions Fewer Conditions

10-Day Weather Forecast

Almanac

Astronomy

Nov. 24, 2014 Rise Set
Actual Time
Civil Twilight
Nautical Twilight
Astronomical Twilight
Moon
Length of Visible Light
Length of Day
Tomorrow will be .
, % of the Moon is Illuminated

Today's Extremes

State Highs State Lows

Community

WunderPhotos

Upload Photos

1,773,379 photos uploaded!

WunderBlogs® & News

Nearby

Air Quality

  Air Quality AQ Index Pollutant
Not available.

Snow Depth

Station Depth Elevation

Earthquake Activity

City Distance Mag. Time & Date
Minimum magnitude displayed is 2.5.

Coastal Water Temperatures

Place Temperature

Nearby Weather Stations